createdAt,value
2022-09-15T00:00:24.253Z,25.10
2022-09-15T00:01:15.415Z,25.09
2022-09-15T00:02:07.988Z,25.10
2022-09-15T00:03:00.037Z,25.11
2022-09-15T00:03:51.555Z,25.10
2022-09-15T00:04:48.506Z,25.11
2022-09-15T00:05:40.397Z,25.12
2022-09-15T00:06:32.800Z,25.11
2022-09-15T00:07:23.866Z,25.12
2022-09-15T00:08:21.001Z,25.07
2022-09-15T00:09:14.256Z,25.08
2022-09-15T00:10:08.183Z,25.08
2022-09-15T00:11:04.381Z,25.02
2022-09-15T00:11:55.570Z,25.02
2022-09-15T00:12:47.460Z,25.08
2022-09-15T00:13:41.102Z,25.09
2022-09-15T00:14:33.736Z,25.09
2022-09-15T00:15:33.374Z,25.08
2022-09-15T00:16:26.425Z,25.06
2022-09-15T00:17:18.337Z,25.07
2022-09-15T00:18:09.813Z,25.08
2022-09-15T00:19:00.787Z,25.06
2022-09-15T00:19:56.944Z,25.10
2022-09-15T00:20:50.412Z,25.07
2022-09-15T00:21:40.676Z,25.06
2022-09-15T00:22:30.392Z,25.04
2022-09-15T00:23:20.368Z,25.06
2022-09-15T00:24:08.978Z,25.08
2022-09-15T00:25:05.758Z,25.07
2022-09-15T00:26:01.470Z,25.06
2022-09-15T00:26:52.704Z,25.08
2022-09-15T00:27:40.628Z,25.07
2022-09-15T00:28:31.517Z,25.03
2022-09-15T00:29:24.376Z,25.02
2022-09-15T00:30:17.105Z,25.07
2022-09-15T00:31:09.352Z,25.03
2022-09-15T00:32:01.341Z,25.01
2022-09-15T00:32:54.826Z,25.04
2022-09-15T00:33:47.984Z,25.04
2022-09-15T00:34:41.011Z,25.07
2022-09-15T00:36:35.194Z,25.03
2022-09-15T00:37:25.667Z,25.04
2022-09-15T00:38:18.952Z,25.06
2022-09-15T00:39:10.938Z,25.06
2022-09-15T00:40:03.287Z,25.07
2022-09-15T00:41:06.912Z,25.08
2022-09-15T00:41:59.221Z,25.06
2022-09-15T00:42:53.088Z,25.07
2022-09-15T00:43:55.664Z,25.07
2022-09-15T00:45:07.971Z,25.06
2022-09-15T00:46:04.194Z,25.06
2022-09-15T00:47:09.670Z,25.07
2022-09-15T00:48:00.638Z,25.03
2022-09-15T00:48:51.399Z,25.06
2022-09-15T00:49:41.653Z,25.04
2022-09-15T00:50:31.620Z,25.05
2022-09-15T00:51:25.942Z,25.07
2022-09-15T00:52:34.409Z,25.05
2022-09-15T00:53:26.209Z,25.02
2022-09-15T00:54:16.695Z,25.07
2022-09-15T00:55:14.746Z,25.04
2022-09-15T00:56:04.974Z,25.06
2022-09-15T00:56:58.690Z,25.08
2022-09-15T00:57:52.658Z,25.07
2022-09-15T00:58:48.039Z,25.04
2022-09-15T00:59:39.122Z,25.08
2022-09-15T01:00:30.133Z,25.06
2022-09-15T01:01:24.346Z,25.08
2022-09-15T01:02:15.884Z,25.07
2022-09-15T01:03:07.457Z,25.08
2022-09-15T01:03:55.262Z,25.06
2022-09-15T01:04:47.647Z,25.08
2022-09-15T01:05:44.224Z,25.06
2022-09-15T01:06:35.641Z,25.09
2022-09-15T01:07:26.803Z,25.07
2022-09-15T01:08:22.464Z,25.01
2022-09-15T01:09:18.047Z,25.04
2022-09-15T01:10:06.590Z,25.06
2022-09-15T01:11:00.474Z,25.06
2022-09-15T01:11:52.903Z,25.01
2022-09-15T01:12:46.137Z,25.03
2022-09-15T01:13:38.047Z,25.00
2022-09-15T01:14:30.702Z,25.03
2022-09-15T01:15:23.749Z,25.03
2022-09-15T01:16:37.980Z,25.07
2022-09-15T01:17:26.243Z,25.07
2022-09-15T01:18:31.081Z,25.00
2022-09-15T01:19:19.396Z,25.01
2022-09-15T01:20:18.717Z,25.02
2022-09-15T01:21:05.071Z,25.06
2022-09-15T01:21:58.743Z,25.06
2022-09-15T01:22:48.330Z,25.02
2022-09-15T01:23:32.882Z,25.04
2022-09-15T01:24:45.586Z,25.04
2022-09-15T01:25:27.641Z,24.99
2022-09-15T01:26:26.902Z,25.03
2022-09-15T01:27:30.606Z,25.04
2022-09-15T01:28:18.972Z,25.01
2022-09-15T01:29:04.157Z,24.99
2022-09-15T01:29:52.891Z,25.03
2022-09-15T01:30:42.649Z,25.02
2022-09-15T01:31:34.988Z,25.00
2022-09-15T01:32:26.383Z,25.02
2022-09-15T01:33:07.111Z,25.02
2022-09-15T01:34:13.723Z,25.04
2022-09-15T01:35:07.125Z,25.02
2022-09-15T01:35:47.636Z,25.03
2022-09-15T01:36:53.109Z,25.02
2022-09-15T01:37:47.384Z,25.01
2022-09-15T01:38:55.176Z,25.03
2022-09-15T01:39:46.571Z,24.99
2022-09-15T01:40:38.203Z,25.02
2022-09-15T01:41:46.994Z,24.96
2022-09-15T01:42:40.447Z,25.02
2022-09-15T01:43:33.042Z,25.03
2022-09-15T01:44:22.603Z,24.99
2022-09-15T01:45:11.879Z,25.02
2022-09-15T01:46:03.638Z,24.96
2022-09-15T01:46:58.419Z,25.02
2022-09-15T01:47:51.650Z,25.01
2022-09-15T01:48:45.282Z,24.99
2022-09-15T01:49:35.519Z,24.99
2022-09-15T01:50:25.558Z,24.98
2022-09-15T01:51:17.190Z,25.00
2022-09-15T01:52:13.430Z,24.96
2022-09-15T01:53:02.252Z,25.00
2022-09-15T01:53:49.841Z,25.01
2022-09-15T01:54:39.692Z,25.00
2022-09-15T01:55:36.070Z,24.99
2022-09-15T01:56:27.006Z,25.04
2022-09-15T01:57:24.360Z,25.04
2022-09-15T01:58:16.659Z,25.03
2022-09-15T01:59:08.645Z,25.01
2022-09-15T02:00:00.169Z,24.97
2022-09-15T02:00:53.057Z,24.98
2022-09-15T02:01:36.381Z,25.00
2022-09-15T02:02:33.306Z,24.95
2022-09-15T02:03:30.840Z,24.98
2022-09-15T02:04:33.783Z,25.02
2022-09-15T02:05:24.478Z,24.97
2022-09-15T02:06:15.207Z,24.96
2022-09-15T02:07:08.776Z,24.97
2022-09-15T02:08:41.258Z,24.98
2022-09-15T02:09:24.053Z,25.01
2022-09-15T02:10:30.684Z,25.01
2022-09-15T02:11:15.295Z,24.98
2022-09-15T02:12:12.574Z,24.98
2022-09-15T02:13:00.992Z,24.99
2022-09-15T02:13:46.334Z,25.00
2022-09-15T02:14:57.622Z,24.96
2022-09-15T02:15:56.717Z,24.99
2022-09-15T02:16:48.478Z,24.98
2022-09-15T02:17:37.591Z,24.98
2022-09-15T02:18:27.394Z,24.96
2022-09-15T02:19:09.846Z,24.97
2022-09-15T02:20:12.194Z,25.00
2022-09-15T02:21:05.299Z,24.99
2022-09-15T02:21:59.866Z,25.01
2022-09-15T02:22:49.045Z,25.01
2022-09-15T02:23:43.196Z,24.98
2022-09-15T02:24:32.677Z,24.97
2022-09-15T02:25:26.879Z,24.98
2022-09-15T02:26:28.464Z,25.00
2022-09-15T02:27:19.781Z,25.00
2022-09-15T02:28:10.259Z,24.98
2022-09-15T02:29:03.777Z,24.99
2022-09-15T02:29:54.946Z,25.03
2022-09-15T02:30:48.386Z,25.01
2022-09-15T02:31:43.438Z,24.98
2022-09-15T02:32:32.735Z,24.98
2022-09-15T02:33:24.318Z,25.01
2022-09-15T02:34:13.779Z,25.00
2022-09-15T02:35:07.258Z,24.98
2022-09-15T02:35:59.171Z,24.99
2022-09-15T02:36:58.584Z,25.00
2022-09-15T02:37:50.268Z,24.98
2022-09-15T02:38:41.412Z,24.98
2022-09-15T02:39:32.361Z,24.98
2022-09-15T02:40:22.190Z,25.00
2022-09-15T02:41:14.820Z,24.96
2022-09-15T02:42:09.703Z,24.97
2022-09-15T02:43:12.141Z,24.98
2022-09-15T02:44:03.787Z,24.96
2022-09-15T02:44:56.805Z,24.95
2022-09-15T02:45:51.968Z,24.99
2022-09-15T02:46:47.751Z,24.98
2022-09-15T02:47:45.271Z,24.99
2022-09-15T02:48:36.731Z,24.99
2022-09-15T02:49:28.419Z,24.97
2022-09-15T02:50:19.165Z,24.99
2022-09-15T02:51:11.005Z,24.98
2022-09-15T02:52:01.811Z,24.97
2022-09-15T02:53:56.792Z,25.00
2022-09-15T02:54:49.881Z,24.98
2022-09-15T02:55:42.384Z,24.98
2022-09-15T02:56:33.233Z,24.99
2022-09-15T02:57:30.228Z,25.01
2022-09-15T02:58:26.418Z,24.99
2022-09-15T02:59:18.854Z,24.98
2022-09-15T03:00:10.094Z,24.99
2022-09-15T03:01:04.371Z,24.96
2022-09-15T03:01:59.596Z,24.94
2022-09-15T03:02:52.405Z,24.99
2022-09-15T03:03:45.300Z,24.95
2022-09-15T03:04:37.769Z,24.95
2022-09-15T03:05:31.667Z,24.98
2022-09-15T03:06:24.729Z,24.96
2022-09-15T03:08:23.846Z,24.97
2022-09-15T03:09:14.315Z,24.98
2022-09-15T03:10:04.720Z,24.97
2022-09-15T03:10:56.279Z,24.96
2022-09-15T03:11:49.508Z,24.95
2022-09-15T03:12:46.632Z,24.93
2022-09-15T03:13:35.951Z,24.96
2022-09-15T03:14:25.945Z,24.95
2022-09-15T03:15:14.083Z,24.97
2022-09-15T03:16:02.868Z,24.95
2022-09-15T03:16:57.350Z,24.95
2022-09-15T03:17:47.296Z,24.97
2022-09-15T03:18:36.729Z,24.94
2022-09-15T03:19:28.965Z,24.98
2022-09-15T03:20:20.345Z,24.95
2022-09-15T03:21:11.027Z,24.97
2022-09-15T03:22:08.335Z,24.98
2022-09-15T03:22:58.557Z,24.98
2022-09-15T03:23:50.756Z,24.98
2022-09-15T03:24:43.202Z,24.97
2022-09-15T03:25:37.081Z,24.96
2022-09-15T03:26:30.873Z,24.95
2022-09-15T03:28:27.778Z,24.94
2022-09-15T03:29:21.638Z,24.95
2022-09-15T03:30:13.066Z,24.94
2022-09-15T03:31:05.174Z,24.94
2022-09-15T03:31:58.052Z,24.94
2022-09-15T03:33:53.317Z,24.95
2022-09-15T03:34:44.921Z,24.97
2022-09-15T03:35:37.156Z,24.99
2022-09-15T03:36:30.429Z,24.94
2022-09-15T03:37:27.827Z,24.97
2022-09-15T03:38:25.582Z,24.96
2022-09-15T03:39:18.922Z,24.97
2022-09-15T03:40:11.612Z,24.99
2022-09-15T03:41:14.109Z,24.96
2022-09-15T03:42:07.835Z,24.99
2022-09-15T03:43:07.745Z,24.96
2022-09-15T03:43:56.845Z,24.98
2022-09-15T03:44:47.074Z,24.94
2022-09-15T03:45:35.918Z,24.97
2022-09-15T03:46:24.997Z,24.96
2022-09-15T03:47:13.746Z,24.98
2022-09-15T03:48:09.342Z,24.97
2022-09-15T03:49:08.213Z,24.95
2022-09-15T03:50:01.048Z,24.96
2022-09-15T03:50:54.952Z,24.92
2022-09-15T03:51:49.146Z,24.95
2022-09-15T03:52:48.505Z,24.96
2022-09-15T03:53:41.650Z,24.99
2022-09-15T03:54:34.361Z,24.99
2022-09-15T03:55:28.526Z,24.95
2022-09-15T03:56:25.451Z,24.97
2022-09-15T03:57:18.529Z,24.95
2022-09-15T03:59:13.370Z,24.96
2022-09-15T04:01:02.974Z,24.94
2022-09-15T04:01:59.590Z,24.93
2022-09-15T04:02:52.493Z,24.94
2022-09-15T04:03:50.147Z,24.96
2022-09-15T04:04:42.654Z,24.97
2022-09-15T04:05:33.644Z,24.95
2022-09-15T04:06:26.350Z,24.96
2022-09-15T04:08:26.173Z,24.96
2022-09-15T04:09:20.399Z,24.95
2022-09-15T04:10:11.207Z,24.94
2022-09-15T04:11:04.437Z,24.96
2022-09-15T04:11:59.141Z,24.94
2022-09-15T04:12:52.065Z,24.92
2022-09-15T04:13:45.217Z,24.94
2022-09-15T04:14:38.323Z,24.95
2022-09-15T04:15:34.939Z,24.91
2022-09-15T04:16:26.557Z,24.93
2022-09-15T04:18:20.692Z,24.94
2022-09-15T04:19:14.710Z,24.92
2022-09-15T04:20:06.935Z,24.94
2022-09-15T04:20:59.735Z,24.92
2022-09-15T04:21:57.536Z,24.95
2022-09-15T04:22:50.946Z,24.95
2022-09-15T04:23:44.345Z,24.96
2022-09-15T04:24:37.072Z,24.95
2022-09-15T04:25:29.367Z,24.97
2022-09-15T04:26:21.815Z,24.96
2022-09-15T04:28:15.639Z,24.96
2022-09-15T04:29:06.281Z,24.95
2022-09-15T04:29:55.456Z,24.97
2022-09-15T04:30:46.135Z,24.95
2022-09-15T04:31:36.292Z,24.92
2022-09-15T04:32:34.878Z,24.95
2022-09-15T04:33:29.171Z,24.95
2022-09-15T04:34:20.888Z,24.95
2022-09-15T04:35:11.749Z,24.95
2022-09-15T04:36:04.572Z,24.94
2022-09-15T04:36:58.406Z,24.93
2022-09-15T04:38:53.624Z,24.93
2022-09-15T04:39:45.522Z,24.90
2022-09-15T04:40:40.026Z,24.90
2022-09-15T04:41:34.224Z,24.92
2022-09-15T04:42:32.053Z,24.89
2022-09-15T04:43:25.423Z,24.89
2022-09-15T04:44:18.389Z,24.90
2022-09-15T04:45:11.565Z,24.89
2022-09-15T04:46:06.276Z,24.89
2022-09-15T04:47:00.075Z,24.90
2022-09-15T04:48:59.335Z,24.86
2022-09-15T04:49:51.573Z,24.90
2022-09-15T04:50:46.414Z,24.88
2022-09-15T04:51:41.790Z,24.90
2022-09-15T04:52:39.379Z,24.90
2022-09-15T04:53:33.226Z,24.91
2022-09-15T04:54:26.239Z,24.92
2022-09-15T04:55:22.137Z,24.91
2022-09-15T04:56:23.277Z,24.91
2022-09-15T04:57:15.812Z,24.92
2022-09-15T04:58:15.166Z,24.95
2022-09-15T04:59:07.136Z,24.92
2022-09-15T04:59:57.741Z,24.94
2022-09-15T05:01:02.052Z,24.94
2022-09-15T05:01:55.321Z,24.91
2022-09-15T05:02:46.735Z,24.93
2022-09-15T05:03:42.152Z,24.91
2022-09-15T05:04:33.263Z,24.93
2022-09-15T05:05:25.234Z,24.93
2022-09-15T05:06:19.062Z,24.94
2022-09-15T05:07:12.612Z,24.92
2022-09-15T05:08:05.800Z,24.90
2022-09-15T05:08:59.072Z,24.89
2022-09-15T05:09:50.239Z,24.87
2022-09-15T05:10:41.249Z,24.89
2022-09-15T05:11:32.359Z,24.91
2022-09-15T05:12:23.715Z,24.90
2022-09-15T05:13:14.256Z,24.94
2022-09-15T05:14:12.727Z,24.90
2022-09-15T05:15:05.958Z,24.92
2022-09-15T05:15:57.740Z,24.90
2022-09-15T05:16:52.044Z,24.92
2022-09-15T05:17:43.261Z,24.91
2022-09-15T05:18:33.343Z,24.92
2022-09-15T05:19:28.224Z,24.90
2022-09-15T05:20:18.205Z,24.91
2022-09-15T05:21:16.653Z,24.91
2022-09-15T05:22:10.850Z,24.91
2022-09-15T05:23:04.285Z,24.91
2022-09-15T05:23:55.109Z,24.97
2022-09-15T05:25:49.737Z,24.93
2022-09-15T05:26:42.173Z,24.95
2022-09-15T05:27:35.050Z,24.93
2022-09-15T05:28:31.031Z,24.92
2022-09-15T05:29:27.248Z,24.92
2022-09-15T05:31:27.893Z,24.94
2022-09-15T05:32:19.069Z,24.95
2022-09-15T05:33:14.119Z,24.94
2022-09-15T05:34:04.551Z,24.92
2022-09-15T05:34:56.531Z,24.93
2022-09-15T05:35:47.730Z,24.90
2022-09-15T05:36:39.168Z,24.90
2022-09-15T05:37:30.757Z,24.91
2022-09-15T05:38:30.093Z,24.90
2022-09-15T05:39:23.820Z,24.93
2022-09-15T05:40:16.116Z,24.92
2022-09-15T05:41:09.153Z,24.89
2022-09-15T05:42:02.062Z,24.90
2022-09-15T05:42:54.233Z,24.91
2022-09-15T05:43:53.025Z,24.91
2022-09-15T05:44:42.319Z,24.90
2022-09-15T05:45:34.797Z,24.88
2022-09-15T05:46:24.569Z,24.88
2022-09-15T05:47:16.349Z,24.91
2022-09-15T05:48:09.145Z,24.92
2022-09-15T05:49:06.786Z,24.90
2022-09-15T05:50:01.344Z,24.89
2022-09-15T05:50:58.543Z,24.87
2022-09-15T05:51:53.612Z,24.87
2022-09-15T05:52:46.746Z,24.87
2022-09-15T05:53:41.377Z,24.86
2022-09-15T05:55:39.920Z,24.86
2022-09-15T05:56:32.242Z,24.86
2022-09-15T05:57:25.910Z,24.91
2022-09-15T05:58:17.737Z,24.88
2022-09-15T05:59:15.500Z,24.90
2022-09-15T06:00:12.957Z,24.91
2022-09-15T06:01:05.872Z,24.87
2022-09-15T06:01:58.740Z,24.90
2022-09-15T06:02:51.924Z,24.90
2022-09-15T06:03:44.033Z,24.90
2022-09-15T06:04:40.896Z,24.88
2022-09-15T06:05:35.315Z,24.88
2022-09-15T06:06:28.716Z,24.91
2022-09-15T06:07:22.043Z,24.93
2022-09-15T06:08:15.771Z,24.91
2022-09-15T06:09:05.513Z,24.89
2022-09-15T06:10:01.007Z,24.90
2022-09-15T06:10:52.161Z,24.89
2022-09-15T06:11:43.031Z,24.89
2022-09-15T06:12:34.195Z,24.93
2022-09-15T06:13:25.687Z,24.92
2022-09-15T06:14:20.713Z,24.93
2022-09-15T06:15:09.985Z,24.93
2022-09-15T06:15:59.784Z,24.92
2022-09-15T06:16:48.815Z,24.90
2022-09-15T06:17:39.284Z,24.92
2022-09-15T06:18:29.204Z,24.92
2022-09-15T06:19:21.924Z,24.91
2022-09-15T06:20:11.912Z,24.92
2022-09-15T06:21:02.686Z,24.93
2022-09-15T06:21:52.629Z,24.92
2022-09-15T06:22:44.208Z,24.92
2022-09-15T06:23:35.034Z,24.89
2022-09-15T06:24:32.292Z,24.88
2022-09-15T06:25:22.869Z,24.93
2022-09-15T06:26:15.741Z,24.93
2022-09-15T06:27:05.514Z,24.91
2022-09-15T06:27:54.403Z,24.89
2022-09-15T06:28:46.018Z,24.92
2022-09-15T06:29:40.315Z,24.93
2022-09-15T06:30:31.150Z,24.93
2022-09-15T06:31:22.566Z,24.92
2022-09-15T06:32:12.992Z,24.89
2022-09-15T06:33:02.166Z,24.89
2022-09-15T06:33:54.605Z,24.88
2022-09-15T06:34:51.601Z,24.90
2022-09-15T06:35:44.725Z,24.90
2022-09-15T06:36:35.448Z,24.90
2022-09-15T06:37:27.514Z,24.87
2022-09-15T06:38:20.278Z,24.90
2022-09-15T06:39:14.099Z,24.90
2022-09-15T06:40:11.144Z,24.82
2022-09-15T06:41:11.103Z,24.85
2022-09-15T06:42:05.902Z,24.87
2022-09-15T06:42:57.711Z,24.87
2022-09-15T06:43:50.377Z,24.87
2022-09-15T06:44:42.076Z,24.88
2022-09-15T06:45:40.522Z,24.90
2022-09-15T06:46:35.100Z,24.91
2022-09-15T06:47:28.361Z,24.89
2022-09-15T06:48:24.841Z,24.91
2022-09-15T06:49:15.183Z,24.88
2022-09-15T06:50:06.930Z,24.91
2022-09-15T06:52:00.595Z,24.91
2022-09-15T06:52:52.237Z,24.87
2022-09-15T06:53:48.110Z,24.87
2022-09-15T06:54:39.804Z,24.89
2022-09-15T06:55:32.213Z,24.90
2022-09-15T06:56:24.513Z,24.86
2022-09-15T06:57:16.365Z,24.88
2022-09-15T06:58:09.450Z,24.87
2022-09-15T06:59:10.428Z,24.88
2022-09-15T07:01:05.760Z,24.84
2022-09-15T07:02:00.334Z,24.90
2022-09-15T07:02:56.979Z,24.89
2022-09-15T07:03:50.033Z,24.86
2022-09-15T07:04:48.983Z,24.91
2022-09-15T07:05:43.158Z,24.90
2022-09-15T07:06:35.660Z,24.91
2022-09-15T07:07:29.279Z,24.88
2022-09-15T07:08:22.554Z,24.87
2022-09-15T07:09:18.662Z,24.90
2022-09-15T07:10:10.865Z,24.87
2022-09-15T07:11:04.148Z,24.89
2022-09-15T07:11:57.393Z,24.88
2022-09-15T07:12:50.774Z,24.89
2022-09-15T07:13:42.268Z,24.87
2022-09-15T07:14:40.194Z,24.89
2022-09-15T07:15:35.920Z,24.88
2022-09-15T07:16:33.511Z,24.87
2022-09-15T07:17:25.991Z,24.87
2022-09-15T07:18:17.897Z,24.87
2022-09-15T07:19:07.961Z,24.87
2022-09-15T07:20:00.898Z,24.87
2022-09-15T07:20:52.231Z,24.88
2022-09-15T07:22:47.172Z,24.89
2022-09-15T07:23:41.604Z,24.86
2022-09-15T07:24:34.558Z,24.88
2022-09-15T07:25:27.486Z,24.89
2022-09-15T07:26:16.364Z,24.85
2022-09-15T07:27:13.589Z,24.89
2022-09-15T07:28:05.866Z,24.88
2022-09-15T07:28:55.082Z,24.89
2022-09-15T07:29:45.593Z,24.88
2022-09-15T07:30:41.816Z,24.87
2022-09-15T07:31:33.594Z,24.83
2022-09-15T07:32:32.580Z,24.85
2022-09-15T07:33:23.682Z,24.86
2022-09-15T07:34:14.535Z,24.88
2022-09-15T07:35:03.918Z,24.83
2022-09-15T07:35:53.440Z,24.87
2022-09-15T07:36:50.059Z,24.85
2022-09-15T07:37:46.227Z,24.87
2022-09-15T07:38:37.436Z,24.88
2022-09-15T07:39:30.578Z,24.87
2022-09-15T07:40:21.466Z,24.85
2022-09-15T07:41:17.864Z,24.85
2022-09-15T07:42:11.807Z,24.91
2022-09-15T07:44:03.845Z,24.85
2022-09-15T07:44:55.173Z,24.84
2022-09-15T07:45:49.334Z,24.84
2022-09-15T07:46:46.598Z,24.87
2022-09-15T07:47:35.943Z,24.87
2022-09-15T07:48:28.947Z,24.88
2022-09-15T07:49:19.722Z,24.86
2022-09-15T07:50:08.789Z,24.88
2022-09-15T07:50:58.471Z,24.84
2022-09-15T07:51:50.292Z,24.84
2022-09-15T07:52:40.207Z,24.84
2022-09-15T07:53:34.759Z,24.88
2022-09-15T07:54:24.974Z,24.86
2022-09-15T07:55:18.257Z,24.88
2022-09-15T07:56:10.739Z,24.85
2022-09-15T07:57:04.843Z,24.92
2022-09-15T07:58:48.769Z,24.82
2022-09-15T07:59:43.400Z,24.81
2022-09-15T08:00:37.720Z,24.85
2022-09-15T08:01:28.909Z,24.86
2022-09-15T08:02:27.341Z,24.88
2022-09-15T08:03:18.908Z,24.90
2022-09-15T08:04:09.600Z,24.90
2022-09-15T08:05:01.038Z,24.88
2022-09-15T08:05:53.375Z,24.89
2022-09-15T08:06:49.485Z,24.91
2022-09-15T08:07:42.245Z,24.90
2022-09-15T08:08:36.203Z,24.88
2022-09-15T08:09:28.701Z,24.88
2022-09-15T08:10:20.325Z,24.87
2022-09-15T08:11:18.418Z,24.87
2022-09-15T08:13:15.828Z,24.89
2022-09-15T08:14:07.073Z,24.87
2022-09-15T08:14:59.920Z,24.87
2022-09-15T08:15:52.973Z,24.89
2022-09-15T08:16:46.138Z,24.86
2022-09-15T08:17:40.057Z,24.87
2022-09-15T08:18:29.970Z,24.87
2022-09-15T08:19:20.597Z,24.85
2022-09-15T08:20:09.514Z,24.83
2022-09-15T08:20:59.453Z,24.86
2022-09-15T08:21:49.404Z,24.89
2022-09-15T08:22:43.485Z,24.91
2022-09-15T08:23:33.939Z,24.90
2022-09-15T08:24:25.160Z,24.88
2022-09-15T08:25:13.986Z,24.87
2022-09-15T08:26:01.678Z,24.88
2022-09-15T08:26:50.487Z,24.87
2022-09-15T08:27:46.732Z,24.87
2022-09-15T08:28:36.594Z,24.85
2022-09-15T08:29:29.116Z,24.85
2022-09-15T08:30:17.284Z,24.87
2022-09-15T08:31:12.459Z,24.89
2022-09-15T08:32:02.362Z,24.90
2022-09-15T08:32:59.251Z,24.85
2022-09-15T08:33:51.903Z,24.82
2022-09-15T08:34:41.716Z,24.84
2022-09-15T08:35:31.936Z,24.84
2022-09-15T08:36:21.869Z,24.89
2022-09-15T08:37:11.017Z,24.89
2022-09-15T08:38:03.639Z,24.84
2022-09-15T08:38:53.300Z,24.88
2022-09-15T08:39:46.173Z,24.85
2022-09-15T08:40:36.990Z,24.86
2022-09-15T08:41:31.895Z,24.87
2022-09-15T08:42:24.969Z,24.87
2022-09-15T08:43:19.612Z,24.86
2022-09-15T08:44:23.986Z,24.89
2022-09-15T08:45:13.803Z,24.89
2022-09-15T08:46:04.238Z,24.84
2022-09-15T08:47:05.225Z,24.86
2022-09-15T08:47:56.200Z,24.85
2022-09-15T08:48:50.652Z,24.85
2022-09-15T08:49:53.935Z,24.84
2022-09-15T08:50:48.747Z,24.87
2022-09-15T08:51:44.491Z,24.88
2022-09-15T08:52:47.136Z,24.90
2022-09-15T08:53:43.415Z,24.90
2022-09-15T08:54:32.903Z,24.85
2022-09-15T08:55:24.315Z,24.88
2022-09-15T08:56:17.003Z,24.88
2022-09-15T08:58:17.582Z,24.88
2022-09-15T08:59:09.211Z,24.89
2022-09-15T09:00:01.719Z,24.90
2022-09-15T09:01:16.625Z,24.90
2022-09-15T09:02:19.722Z,24.90
2022-09-15T09:03:27.065Z,24.89
2022-09-15T09:04:16.384Z,24.87
2022-09-15T09:05:00.044Z,24.89
2022-09-15T09:05:42.431Z,24.90
2022-09-15T09:06:37.192Z,24.88
2022-09-15T09:07:21.194Z,24.88
2022-09-15T09:08:13.971Z,24.86
2022-09-15T09:09:14.573Z,24.86
2022-09-15T09:10:06.069Z,24.87
2022-09-15T09:11:06.395Z,24.90
2022-09-15T09:11:58.088Z,24.92
2022-09-15T09:13:02.034Z,24.92
2022-09-15T09:14:06.849Z,24.88
2022-09-15T09:15:12.448Z,24.88
2022-09-15T09:15:57.717Z,24.90
2022-09-15T09:16:56.908Z,24.90
2022-09-15T09:17:38.483Z,24.85
2022-09-15T09:18:36.665Z,24.84
2022-09-15T09:19:31.362Z,24.84
2022-09-15T09:20:17.888Z,24.86
2022-09-15T09:21:04.349Z,24.88
2022-09-15T09:21:55.324Z,24.89
2022-09-15T09:22:53.768Z,24.89
2022-09-15T09:23:44.748Z,24.84
2022-09-15T09:25:05.896Z,24.88
2022-09-15T09:26:08.621Z,24.90
2022-09-15T09:26:58.747Z,24.85
2022-09-15T09:27:56.542Z,24.85
2022-09-15T09:28:47.088Z,24.87
2022-09-15T09:29:45.591Z,24.86
2022-09-15T09:30:41.258Z,24.84
2022-09-15T09:31:29.659Z,24.87
2022-09-15T09:32:37.980Z,24.84
2022-09-15T09:33:38.729Z,24.85
2022-09-15T09:34:46.943Z,24.86
2022-09-15T09:35:50.261Z,24.88
2022-09-15T09:36:43.505Z,24.83
2022-09-15T09:37:35.087Z,24.86
2022-09-15T09:38:25.795Z,24.87
2022-09-15T09:39:18.219Z,24.88
2022-09-15T09:40:09.914Z,24.88
2022-09-15T09:41:07.741Z,24.88
2022-09-15T09:42:00.403Z,24.87
2022-09-15T09:42:53.374Z,24.89
2022-09-15T09:43:46.037Z,24.86
2022-09-15T09:44:37.052Z,24.88
2022-09-15T09:45:31.668Z,24.87
2022-09-15T09:46:34.306Z,24.84
2022-09-15T09:47:25.284Z,24.85
2022-09-15T09:48:16.400Z,24.85
2022-09-15T09:49:06.331Z,24.85
2022-09-15T09:49:56.461Z,24.86
2022-09-15T09:50:47.528Z,24.86
2022-09-15T09:51:48.873Z,24.83
2022-09-15T09:52:47.816Z,24.86
2022-09-15T09:53:37.853Z,24.84
2022-09-15T09:54:28.933Z,24.87
2022-09-15T09:55:22.196Z,24.84
2022-09-15T09:56:21.206Z,24.84
2022-09-15T09:57:17.527Z,24.87
2022-09-15T09:58:12.240Z,24.85
2022-09-15T09:59:04.672Z,24.83
2022-09-15T10:00:01.368Z,24.83
2022-09-15T10:00:55.615Z,24.84
2022-09-15T10:01:49.159Z,24.84
2022-09-15T10:02:39.042Z,24.87
2022-09-15T10:03:35.507Z,24.87
2022-09-15T10:04:27.664Z,24.88
2022-09-15T10:05:09.032Z,24.86
2022-09-15T10:05:50.331Z,24.88
2022-09-15T10:06:44.954Z,24.87
2022-09-15T10:07:25.000Z,24.89
2022-09-15T10:08:14.311Z,24.86
2022-09-15T10:08:56.469Z,24.84
2022-09-15T10:09:45.810Z,24.85
2022-09-15T10:10:34.906Z,24.82
2022-09-15T10:11:22.471Z,24.85
2022-09-15T10:12:15.874Z,24.81
2022-09-15T10:13:05.945Z,24.82
2022-09-15T10:14:01.472Z,24.85
2022-09-15T10:14:54.029Z,24.84
2022-09-15T10:15:42.781Z,24.86
2022-09-15T10:16:34.353Z,24.87
2022-09-15T10:17:19.640Z,24.84
2022-09-15T10:18:08.015Z,24.83
2022-09-15T10:18:58.009Z,24.83
2022-09-15T10:19:57.511Z,24.85
2022-09-15T10:20:49.645Z,24.86
2022-09-15T10:21:46.314Z,24.81
2022-09-15T10:22:41.525Z,24.84
2022-09-15T10:23:22.343Z,24.87
2022-09-15T10:24:18.196Z,24.86
2022-09-15T10:25:09.782Z,24.83
2022-09-15T10:26:02.837Z,24.82
2022-09-15T10:26:59.868Z,24.86
2022-09-15T10:27:53.252Z,24.84
2022-09-15T10:28:43.603Z,24.88
2022-09-15T10:29:33.865Z,24.85
2022-09-15T10:30:18.465Z,24.87
2022-09-15T10:31:23.722Z,24.85
2022-09-15T10:33:33.306Z,24.88
2022-09-15T10:34:27.537Z,24.85
2022-09-15T10:35:08.762Z,24.88
2022-09-15T10:35:56.995Z,24.87
2022-09-15T10:36:54.420Z,24.89
2022-09-15T10:37:58.267Z,24.85
2022-09-15T10:38:45.819Z,24.87
2022-09-15T10:39:35.076Z,24.84
2022-09-15T10:40:22.263Z,24.82
2022-09-15T10:41:15.142Z,24.82
2022-09-15T10:42:08.166Z,24.80
2022-09-15T10:43:04.755Z,24.83
2022-09-15T10:43:55.690Z,24.83
2022-09-15T10:44:46.075Z,24.87
2022-09-15T10:45:27.793Z,24.81
2022-09-15T10:46:15.965Z,24.82
2022-09-15T10:47:09.211Z,24.85
2022-09-15T10:48:06.475Z,24.85
2022-09-15T10:48:48.560Z,24.85
2022-09-15T10:49:51.267Z,24.87
2022-09-15T10:50:41.121Z,24.85
2022-09-15T10:51:44.465Z,24.84
2022-09-15T10:52:40.002Z,24.84
2022-09-15T10:53:21.564Z,24.83
2022-09-15T10:54:05.883Z,24.83
2022-09-15T10:55:09.559Z,24.85
2022-09-15T10:56:05.731Z,24.84
2022-09-15T10:56:53.614Z,24.83
2022-09-15T10:57:50.790Z,24.83
2022-09-15T10:58:34.877Z,24.83
2022-09-15T10:59:35.279Z,24.85
2022-09-15T11:00:27.182Z,24.84
2022-09-15T11:01:26.618Z,24.82
2022-09-15T11:02:31.719Z,24.84
2022-09-15T11:03:19.004Z,24.82
2022-09-15T11:04:16.672Z,24.82
2022-09-15T11:05:04.754Z,24.82
2022-09-15T11:06:13.382Z,24.82
2022-09-15T11:07:26.949Z,24.77
2022-09-15T11:08:21.966Z,24.82
2022-09-15T11:09:13.904Z,24.84
2022-09-15T11:10:08.146Z,24.84
2022-09-15T11:10:49.915Z,24.85
2022-09-15T11:11:49.244Z,24.86
2022-09-15T11:12:50.991Z,24.85
2022-09-15T11:13:44.537Z,24.88
2022-09-15T11:14:27.759Z,24.89
2022-09-15T11:15:13.868Z,24.85
2022-09-15T11:15:58.406Z,24.88
2022-09-15T11:16:51.821Z,24.90
2022-09-15T11:18:40.491Z,24.84
2022-09-15T11:19:23.406Z,24.81
2022-09-15T11:20:04.988Z,24.83
2022-09-15T11:21:14.131Z,24.85
2022-09-15T11:22:04.305Z,24.83
2022-09-15T11:23:01.490Z,24.88
2022-09-15T11:23:52.120Z,24.86
2022-09-15T11:24:50.511Z,24.88
2022-09-15T11:25:41.456Z,24.90
2022-09-15T11:26:34.808Z,24.90
2022-09-15T11:27:39.808Z,24.94
2022-09-15T11:28:33.244Z,24.94
2022-09-15T11:29:32.245Z,24.92
2022-09-15T11:30:34.543Z,24.93
2022-09-15T11:31:26.581Z,24.94
2022-09-15T11:32:20.001Z,24.93
2022-09-15T11:33:08.949Z,24.91
2022-09-15T11:38:50.141Z,24.95
2022-09-15T11:39:44.882Z,24.96
2022-09-15T11:40:34.475Z,24.90
2022-09-15T11:41:16.236Z,24.94
2022-09-15T11:42:11.862Z,24.93
2022-09-15T11:43:00.659Z,24.92
2022-09-15T11:43:45.898Z,24.94
2022-09-15T11:48:29.808Z,24.98
2022-09-15T11:49:21.574Z,24.99
2022-09-15T11:50:11.398Z,24.96
2022-09-15T11:50:57.282Z,24.95
2022-09-15T11:58:59.680Z,24.96
2022-09-15T11:59:53.237Z,24.93
2022-09-15T12:00:48.154Z,24.94
2022-09-15T12:01:44.436Z,24.95
2022-09-15T12:02:48.172Z,24.95
2022-09-15T12:03:29.127Z,24.99
2022-09-15T12:04:26.813Z,24.96
2022-09-15T12:05:23.618Z,25.03
2022-09-15T12:06:15.247Z,25.02
2022-09-15T12:07:16.622Z,25.08